createdAt,value
2023-04-21T00:02:02.684Z,15.40
2023-04-21T00:04:32.652Z,15.23
2023-04-21T00:07:03.628Z,14.53
2023-04-21T00:09:31.666Z,12.63
2023-04-21T00:12:01.538Z,15.73
2023-04-21T00:14:29.621Z,15.03
2023-04-21T00:16:59.332Z,14.20
2023-04-21T00:19:28.931Z,14.30
2023-04-21T00:21:59.016Z,18.70
2023-04-21T00:24:27.238Z,15.90
2023-04-21T00:26:55.256Z,17.20
2023-04-21T00:29:25.272Z,17.20
2023-04-21T00:31:53.395Z,12.97
2023-04-21T00:34:21.511Z,16.23
2023-04-21T00:36:49.523Z,14.87
2023-04-21T00:39:17.751Z,17.70
2023-04-21T00:41:46.258Z,13.70
2023-04-21T00:44:14.273Z,14.33
2023-04-21T00:46:43.960Z,15.20
2023-04-21T00:49:13.216Z,13.20
2023-04-21T00:51:41.452Z,16.87
2023-04-21T00:54:12.906Z,14.07
2023-04-21T00:56:41.076Z,14.63
2023-04-21T00:59:09.234Z,12.33
2023-04-21T01:01:37.342Z,13.47
2023-04-21T01:04:07.319Z,11.37
2023-04-21T01:06:35.679Z,14.90
2023-04-21T01:09:05.198Z,13.27
2023-04-21T01:11:33.405Z,12.27
2023-04-21T01:14:01.728Z,16.03
2023-04-21T01:16:30.192Z,13.97
2023-04-21T01:18:59.158Z,15.13
2023-04-21T01:21:29.365Z,14.73
2023-04-21T01:23:58.722Z,12.03
2023-04-21T01:26:26.721Z,14.40
2023-04-21T01:28:58.205Z,14.53
2023-04-21T01:31:27.319Z,13.50
2023-04-21T01:33:55.532Z,14.53
2023-04-21T01:36:23.659Z,19.33
2023-04-21T01:38:53.710Z,16.87
2023-04-21T01:41:25.248Z,15.37
2023-04-21T01:43:55.131Z,13.43
2023-04-21T01:46:25.526Z,15.10
2023-04-21T01:48:53.585Z,16.97
2023-04-21T01:51:21.594Z,18.67
2023-04-21T01:53:50.201Z,14.50
2023-04-21T01:56:18.924Z,14.27
2023-04-21T01:58:48.298Z,15.33
2023-04-21T02:01:16.413Z,17.63
2023-04-21T02:03:44.605Z,16.20
2023-04-21T02:06:13.998Z,18.50
2023-04-21T02:08:42.072Z,20.10
2023-04-21T02:11:10.118Z,17.33
2023-04-21T02:13:41.094Z,16.77
2023-04-21T02:16:14.023Z,14.53
2023-04-21T02:18:44.551Z,16.80
2023-04-21T02:21:12.958Z,16.00
2023-04-21T02:23:41.011Z,17.60
2023-04-21T02:26:09.125Z,15.90
2023-04-21T02:28:37.186Z,13.50
2023-04-21T02:31:05.317Z,14.57
2023-04-21T02:33:36.849Z,16.73
2023-04-21T02:36:05.924Z,14.33
2023-04-21T02:38:33.993Z,15.80
2023-04-21T02:41:01.990Z,17.10
2023-04-21T02:43:30.031Z,16.77
2023-04-21T02:45:58.148Z,18.60
2023-04-21T02:48:26.837Z,16.93
2023-04-21T02:50:56.217Z,13.97
2023-04-21T02:53:24.252Z,18.10
2023-04-21T02:55:53.712Z,16.50
2023-04-21T02:58:22.134Z,16.17
2023-04-21T03:00:50.251Z,14.30
2023-04-21T03:03:18.419Z,18.40
2023-04-21T03:05:46.733Z,19.70
2023-04-21T03:08:16.172Z,17.47
2023-04-21T03:10:44.187Z,14.13
2023-04-21T03:13:12.215Z,18.43
2023-04-21T03:15:40.400Z,18.07
2023-04-21T03:18:08.588Z,12.30
2023-04-21T03:20:36.676Z,17.57
2023-04-21T03:23:04.805Z,16.10
2023-04-21T03:25:34.252Z,16.00
2023-04-21T03:28:03.153Z,18.00
2023-04-21T03:30:31.314Z,13.70
2023-04-21T03:32:59.648Z,15.40
2023-04-21T03:35:28.189Z,18.90
2023-04-21T03:37:59.206Z,14.90
2023-04-21T03:40:27.809Z,13.50
2023-04-21T03:42:57.174Z,16.57
2023-04-21T03:45:25.531Z,15.50
2023-04-21T03:47:55.593Z,16.60
2023-04-21T03:50:24.430Z,15.53
2023-04-21T03:52:52.442Z,16.50
2023-04-21T03:55:20.466Z,17.13
2023-04-21T03:57:48.476Z,13.87
2023-04-21T04:00:17.958Z,18.13
2023-04-21T04:02:47.081Z,18.93
2023-04-21T04:05:15.517Z,14.77
2023-04-21T04:07:43.574Z,14.90
2023-04-21T04:10:12.037Z,16.20
2023-04-21T04:12:40.096Z,14.73
2023-04-21T04:15:09.742Z,14.47
2023-04-21T04:17:39.631Z,17.50
2023-04-21T04:20:08.764Z,15.87
2023-04-21T04:22:37.165Z,14.73
2023-04-21T04:25:05.594Z,15.83
2023-04-21T04:27:34.243Z,14.07
2023-04-21T04:30:03.208Z,18.83
2023-04-21T04:32:33.481Z,14.70
2023-04-21T04:35:02.894Z,15.13
2023-04-21T04:37:31.732Z,12.20
2023-04-21T04:39:59.852Z,12.67
2023-04-21T04:42:28.938Z,16.10
2023-04-21T04:44:57.296Z,12.00
2023-04-21T04:47:25.358Z,16.87
2023-04-21T04:49:53.377Z,15.33
2023-04-21T04:52:22.756Z,15.57
2023-04-21T04:54:50.755Z,12.67
2023-04-21T04:57:18.751Z,11.63
2023-04-21T04:59:46.849Z,13.03
2023-04-21T05:02:15.115Z,14.40
2023-04-21T05:04:43.358Z,14.07
2023-04-21T05:07:11.492Z,14.17
2023-04-21T05:09:40.845Z,14.63
2023-04-21T05:12:09.006Z,13.80
2023-04-21T05:14:36.998Z,11.10
2023-04-21T05:17:05.120Z,12.63
2023-04-21T05:19:35.911Z,15.00
2023-04-21T05:22:06.415Z,16.10
2023-04-21T05:24:34.630Z,12.47
2023-04-21T05:27:04.079Z,12.37
2023-04-21T05:29:34.149Z,15.73
2023-04-21T05:32:02.421Z,14.40
2023-04-21T05:34:30.469Z,11.83
2023-04-21T05:36:58.465Z,13.50
2023-04-21T05:39:28.074Z,16.73
2023-04-21T05:41:56.137Z,12.90
2023-04-21T05:44:26.272Z,16.27
2023-04-21T05:46:54.238Z,15.30
2023-04-21T05:49:22.275Z,13.40
2023-04-21T05:51:50.413Z,13.77
2023-04-21T05:54:18.639Z,15.60
2023-04-21T05:56:48.139Z,11.70
2023-04-21T05:59:16.176Z,18.70
2023-04-21T06:01:45.808Z,14.80
2023-04-21T06:04:14.195Z,16.17
2023-04-21T06:06:42.524Z,16.37
2023-04-21T06:09:10.602Z,14.87
2023-04-21T06:11:38.632Z,16.00
2023-04-21T06:14:06.659Z,10.70
2023-04-21T06:16:35.016Z,11.20
2023-04-21T06:19:04.587Z,10.57
2023-04-21T06:21:32.629Z,14.33
2023-04-21T06:24:00.651Z,12.37
2023-04-21T06:26:28.646Z,14.60
2023-04-21T06:28:56.694Z,12.97
2023-04-21T06:31:24.864Z,13.40
2023-04-21T06:33:52.907Z,15.80
2023-04-21T06:36:22.970Z,12.40
2023-04-21T06:38:51.071Z,14.50
2023-04-21T06:41:19.576Z,13.10
2023-04-21T06:43:47.633Z,16.50
2023-04-21T06:46:15.721Z,18.30
2023-04-21T06:48:43.754Z,15.93
2023-04-21T06:51:11.752Z,16.03
2023-04-21T06:53:41.098Z,14.07
2023-04-21T06:56:09.130Z,18.90
2023-04-21T06:58:37.163Z,15.73
2023-04-21T07:01:05.250Z,17.93
2023-04-21T07:03:33.416Z,16.50
2023-04-21T07:06:01.978Z,17.57
2023-04-21T07:08:29.993Z,18.17
2023-04-21T07:10:59.342Z,18.27
2023-04-21T07:13:27.448Z,18.67
2023-04-21T07:15:55.665Z,19.37
2023-04-21T07:18:23.741Z,19.67
2023-04-21T07:20:52.279Z,18.40
2023-04-21T07:23:20.337Z,16.40
2023-04-21T07:25:48.356Z,19.90
2023-04-21T07:28:17.734Z,21.07
2023-04-21T07:30:45.873Z,18.37
2023-04-21T07:33:14.737Z,22.90
2023-04-21T07:35:43.195Z,18.80
2023-04-21T07:38:11.185Z,19.33
2023-04-21T07:40:39.254Z,22.20
2023-04-21T07:43:07.291Z,23.97
2023-04-21T07:45:36.669Z,24.57
2023-04-21T07:48:06.114Z,23.20
2023-04-21T07:50:35.601Z,23.57
2023-04-21T07:53:03.749Z,20.20
2023-04-21T07:55:31.794Z,25.10
2023-04-21T07:57:59.815Z,23.13
2023-04-21T08:00:27.917Z,23.63
2023-04-21T08:02:57.366Z,22.80
2023-04-21T08:05:28.813Z,30.83
2023-04-21T08:07:59.798Z,22.23
2023-04-21T08:10:27.858Z,26.93
2023-04-21T08:12:55.987Z,26.33
2023-04-21T08:15:24.192Z,23.53
2023-04-21T08:17:52.363Z,24.23
2023-04-21T08:20:21.793Z,24.43
2023-04-21T08:22:49.928Z,24.20
2023-04-21T08:25:18.039Z,27.03
2023-04-21T08:27:46.156Z,25.53
2023-04-21T08:30:15.073Z,27.33
2023-04-21T08:32:43.475Z,25.57
2023-04-21T08:35:12.138Z,24.70
2023-04-21T08:37:41.774Z,27.70
2023-04-21T08:40:10.487Z,27.43
2023-04-21T08:42:39.415Z,25.67
2023-04-21T08:45:08.695Z,24.63
2023-04-21T08:47:41.278Z,25.10
2023-04-21T08:50:14.630Z,23.83
2023-04-21T08:52:44.048Z,28.23
2023-04-21T08:55:13.824Z,23.23
2023-04-21T08:57:41.947Z,25.03
2023-04-21T09:00:11.039Z,23.03
2023-04-21T09:03:00.089Z,25.73
2023-04-21T09:05:30.865Z,23.77
2023-04-21T09:08:10.924Z,24.40
2023-04-21T09:10:46.255Z,26.30
2023-04-21T09:13:14.459Z,23.87
2023-04-21T09:15:43.770Z,26.80
2023-04-21T09:18:14.003Z,24.43
2023-04-21T09:20:43.617Z,22.93
2023-04-21T09:23:13.424Z,33.30
2023-04-21T09:25:42.528Z,24.80
2023-04-21T09:28:11.549Z,23.90
2023-04-21T09:30:41.147Z,26.57
2023-04-21T09:33:19.976Z,22.70
2023-04-21T09:35:54.110Z,35.77
2023-04-21T09:38:24.376Z,31.00
2023-04-21T09:40:58.760Z,31.33
2023-04-21T09:43:26.988Z,23.00
2023-04-21T09:45:56.907Z,27.40
2023-04-21T09:48:29.480Z,27.20
2023-04-21T09:53:35.514Z,26.80
2023-04-21T09:56:05.435Z,24.40
2023-04-21T09:58:41.644Z,25.33
2023-04-21T10:01:11.126Z,22.10
2023-04-21T10:03:41.006Z,26.90
2023-04-21T10:06:09.322Z,23.57
2023-04-21T10:08:39.093Z,26.63
2023-04-21T10:11:07.862Z,29.97
2023-04-21T10:13:37.781Z,22.70
2023-04-21T10:16:07.841Z,23.37
2023-04-21T10:18:38.372Z,26.60
2023-04-21T10:21:09.036Z,23.53
2023-04-21T10:23:44.656Z,22.93
2023-04-21T10:26:15.082Z,26.63
2023-04-21T10:28:54.425Z,27.83
2023-04-21T10:31:27.056Z,25.73
2023-04-21T10:34:18.058Z,26.57
2023-04-21T10:37:11.416Z,27.50
2023-04-21T10:39:45.472Z,30.97
2023-04-21T10:42:23.092Z,26.20
2023-04-21T10:45:03.551Z,23.87
2023-04-21T10:47:38.268Z,21.70
2023-04-21T10:50:14.822Z,24.37
2023-04-21T10:52:46.655Z,21.27
2023-04-21T10:55:17.055Z,24.53
2023-04-21T10:57:46.467Z,18.63
2023-04-21T11:00:20.010Z,20.67
2023-04-21T11:02:56.274Z,22.00
2023-04-21T11:05:38.432Z,26.90
2023-04-21T11:08:12.277Z,25.50
2023-04-21T11:10:51.707Z,21.27
2023-04-21T11:13:22.987Z,24.00
2023-04-21T11:15:59.044Z,23.53
2023-04-21T11:18:43.670Z,21.80
2023-04-21T11:21:15.875Z,17.70
2023-04-21T11:23:49.874Z,24.23
2023-04-21T11:26:20.967Z,24.23
2023-04-21T11:28:50.665Z,20.20
2023-04-21T11:31:18.812Z,18.60
2023-04-21T11:33:46.942Z,23.70
2023-04-21T11:36:15.014Z,20.90
2023-04-21T11:38:43.437Z,23.37
2023-04-21T11:41:12.264Z,17.53
2023-04-21T11:43:47.524Z,21.63
2023-04-21T11:46:19.468Z,16.70
2023-04-21T11:48:47.522Z,18.40
2023-04-21T11:51:21.515Z,20.40
2023-04-21T11:53:50.393Z,22.23
2023-04-21T11:56:22.922Z,19.93
2023-04-21T11:58:53.604Z,22.50
2023-04-21T12:01:22.292Z,20.97
2023-04-21T12:03:55.046Z,20.80
2023-04-21T12:06:24.636Z,17.60
2023-04-21T12:09:02.143Z,18.03
2023-04-21T12:11:31.784Z,22.33
2023-04-21T12:14:01.753Z,19.07
2023-04-21T12:16:30.351Z,20.10
2023-04-21T12:18:58.823Z,20.20
2023-04-21T12:21:30.340Z,16.07
2023-04-21T12:23:58.556Z,19.63
2023-04-21T12:26:26.588Z,14.67
2023-04-21T12:28:55.480Z,22.77
2023-04-21T12:31:24.887Z,20.30
2023-04-21T12:33:52.928Z,18.40
2023-04-21T12:36:21.171Z,19.07
2023-04-21T12:38:49.240Z,19.57
2023-04-21T12:41:17.292Z,17.03
2023-04-21T12:43:45.585Z,18.40
2023-04-21T12:46:13.634Z,19.43
2023-04-21T12:48:43.043Z,17.83
2023-04-21T12:51:11.107Z,17.07
2023-04-21T12:53:39.132Z,15.10
2023-04-21T12:56:07.752Z,17.30
2023-04-21T12:58:35.931Z,18.20
2023-04-21T13:01:04.246Z,19.67
2023-04-21T13:03:32.589Z,15.63
2023-04-21T13:06:02.160Z,16.07
2023-04-21T13:08:30.649Z,17.03
2023-04-21T13:10:58.904Z,22.43
2023-04-21T13:13:27.429Z,13.70
2023-04-21T13:15:55.603Z,15.77
2023-04-21T13:18:23.655Z,13.10
2023-04-21T13:20:51.886Z,14.20
2023-04-21T13:23:21.599Z,14.73
2023-04-21T13:25:50.931Z,13.33
2023-04-21T13:28:19.493Z,14.40
2023-04-21T13:30:47.843Z,18.00
2023-04-21T13:33:16.478Z,15.83
2023-04-21T13:35:44.669Z,16.20
2023-04-21T13:38:13.169Z,16.10
2023-04-21T13:40:42.835Z,17.13
2023-04-21T13:43:10.952Z,15.40
2023-04-21T13:45:40.120Z,15.20
2023-04-21T13:48:08.191Z,13.47
2023-04-21T13:50:36.283Z,15.23
2023-04-21T13:53:04.357Z,14.37
2023-04-21T13:55:32.603Z,16.60
2023-04-21T13:58:02.411Z,14.83
2023-04-21T14:00:30.618Z,12.20
2023-04-21T14:02:58.822Z,14.60
2023-04-21T14:05:27.239Z,9.90
2023-04-21T14:07:56.008Z,16.67
2023-04-21T14:10:25.029Z,15.90
2023-04-21T14:12:53.121Z,14.97
2023-04-21T14:15:22.538Z,14.13
2023-04-21T14:17:50.784Z,14.20
2023-04-21T14:20:19.004Z,15.80
2023-04-21T14:22:47.659Z,12.80
2023-04-21T14:25:16.272Z,13.33
2023-04-21T14:27:44.365Z,11.53
2023-04-21T14:30:13.816Z,13.57
2023-04-21T14:32:45.399Z,10.47
2023-04-21T14:35:13.736Z,13.63
2023-04-21T14:37:42.408Z,13.77
2023-04-21T14:40:11.327Z,11.57
2023-04-21T14:42:41.416Z,12.60
2023-04-21T14:45:10.683Z,11.33
2023-04-21T14:47:39.303Z,11.53
2023-04-21T14:50:10.179Z,11.67
2023-04-21T14:52:38.567Z,10.90
2023-04-21T14:55:07.576Z,11.83
2023-04-21T14:57:35.706Z,10.40
2023-04-21T15:00:03.854Z,12.40
2023-04-21T15:02:32.453Z,10.67
2023-04-21T15:05:02.106Z,12.50
2023-04-21T15:07:31.539Z,9.17
2023-04-21T15:09:59.684Z,8.50
2023-04-21T15:12:27.802Z,8.20
2023-04-21T15:14:55.842Z,8.37
2023-04-21T15:17:24.024Z,11.10
2023-04-21T15:19:52.382Z,11.13
2023-04-21T15:22:20.880Z,8.77
2023-04-21T15:24:52.289Z,9.00
2023-04-21T15:27:21.832Z,9.03
2023-04-21T15:29:49.943Z,8.70
2023-04-21T15:32:17.938Z,9.40
2023-04-21T15:34:45.977Z,12.20
2023-04-21T15:37:16.996Z,9.90
2023-04-21T15:39:45.018Z,8.73
2023-04-21T15:42:14.541Z,8.07
2023-04-21T15:44:42.581Z,7.40
2023-04-21T15:47:10.797Z,8.43
2023-04-21T15:49:39.141Z,9.40
2023-04-21T15:52:07.411Z,10.03
2023-04-21T15:54:35.717Z,7.10
2023-04-21T15:57:04.156Z,11.77
2023-04-21T15:59:33.610Z,11.37
2023-04-21T16:02:01.853Z,8.97
2023-04-21T16:04:30.625Z,8.03
2023-04-21T16:06:58.749Z,4.93
2023-04-21T16:09:26.942Z,7.80
2023-04-21T16:11:55.328Z,8.57
2023-04-21T16:14:23.559Z,12.53
2023-04-21T16:16:53.027Z,8.00
2023-04-21T16:19:21.109Z,12.30
2023-04-21T16:21:49.167Z,7.83
2023-04-21T16:24:17.399Z,8.30
2023-04-21T16:26:45.587Z,11.47
2023-04-21T16:29:13.702Z,9.30
2023-04-21T16:31:41.796Z,11.93
2023-04-21T16:34:13.655Z,7.87
2023-04-21T16:36:41.745Z,11.17
2023-04-21T16:39:09.774Z,10.20
2023-04-21T16:41:37.906Z,9.57
2023-04-21T16:44:05.955Z,7.00
2023-04-21T16:46:34.430Z,8.77
2023-04-21T16:49:02.648Z,7.43
2023-04-21T16:51:32.209Z,7.17
2023-04-21T16:54:00.493Z,9.33
2023-04-21T16:56:28.506Z,7.60
2023-04-21T16:58:56.544Z,11.50
2023-04-21T17:01:24.658Z,7.10
2023-04-21T17:03:52.856Z,8.80
2023-04-21T17:06:21.834Z,10.93
2023-04-21T17:08:52.942Z,11.30
2023-04-21T17:11:20.971Z,6.90
2023-04-21T17:13:49.340Z,11.77
2023-04-21T17:16:17.498Z,10.13
2023-04-21T17:18:45.638Z,7.53
2023-04-21T17:21:13.700Z,15.03
2023-04-21T17:23:41.785Z,11.30
2023-04-21T17:26:13.028Z,8.90
2023-04-21T17:28:41.403Z,6.67
2023-04-21T17:31:15.856Z,8.30
2023-04-21T17:33:44.692Z,8.40
2023-04-21T17:36:13.002Z,7.03
2023-04-21T17:38:42.599Z,6.70
2023-04-21T17:41:12.087Z,6.20
2023-04-21T17:43:40.108Z,7.63
2023-04-21T17:46:08.286Z,8.43
2023-04-21T17:48:36.943Z,8.00
2023-04-21T17:51:05.555Z,11.07
2023-04-21T17:53:33.792Z,7.77
2023-04-21T17:56:01.839Z,7.37
2023-04-21T17:58:31.364Z,8.63
2023-04-21T18:00:59.462Z,7.77
2023-04-21T18:03:27.894Z,9.10
2023-04-21T18:05:56.574Z,7.23
2023-04-21T18:08:24.695Z,9.90
2023-04-21T18:10:52.711Z,9.50
2023-04-21T18:13:20.706Z,7.70
2023-04-21T18:15:50.646Z,7.30
2023-04-21T18:18:18.767Z,6.10
2023-04-21T18:20:46.791Z,6.00
2023-04-21T18:23:14.843Z,6.27
2023-04-21T18:25:43.300Z,3.80
2023-04-21T18:28:12.539Z,5.93
2023-04-21T18:30:41.086Z,4.73
2023-04-21T18:33:11.417Z,4.30
2023-04-21T18:35:39.955Z,2.60
2023-04-21T18:38:10.319Z,3.73
2023-04-21T18:40:38.718Z,5.73
2023-04-21T18:43:06.947Z,3.43
2023-04-21T18:45:34.986Z,5.13
2023-04-21T18:48:03.080Z,4.40
2023-04-21T18:50:34.694Z,4.53
2023-04-21T18:53:04.721Z,6.33
2023-04-21T18:55:33.489Z,5.17
2023-04-21T18:58:01.582Z,4.83
2023-04-21T19:00:30.171Z,4.53
2023-04-21T19:02:58.711Z,3.63
2023-04-21T19:05:29.588Z,5.20
2023-04-21T19:08:00.385Z,4.50
2023-04-21T19:10:28.768Z,4.90
2023-04-21T19:12:56.824Z,5.73
2023-04-21T19:15:24.831Z,4.27
2023-04-21T19:17:52.854Z,5.33
2023-04-21T19:20:21.233Z,3.60
2023-04-21T19:22:49.225Z,4.93
2023-04-21T19:25:18.754Z,4.07
2023-04-21T19:27:48.041Z,10.03
2023-04-21T19:30:16.199Z,5.07
2023-04-21T19:32:44.330Z,4.03
2023-04-21T19:35:12.411Z,4.57
2023-04-21T19:37:40.613Z,9.53
2023-04-21T19:40:09.946Z,5.97
2023-04-21T19:42:41.670Z,3.57
2023-04-21T19:45:11.007Z,4.13
2023-04-21T19:47:39.009Z,22.27
2023-04-21T19:50:08.758Z,3.10
2023-04-21T19:52:36.748Z,4.00
2023-04-21T19:55:05.550Z,3.53
2023-04-21T19:57:33.576Z,3.50
2023-04-21T20:00:03.081Z,5.73
2023-04-21T20:02:40.410Z,6.60
2023-04-21T20:05:10.005Z,9.27
2023-04-21T20:07:38.338Z,6.00
2023-04-21T20:10:07.552Z,5.63
2023-04-21T20:12:35.792Z,7.23
2023-04-21T20:15:05.903Z,9.90
2023-04-21T20:17:34.289Z,7.43
2023-04-21T20:20:03.296Z,8.67
2023-04-21T20:22:31.460Z,6.07
2023-04-21T20:24:59.471Z,6.70
2023-04-21T20:27:27.845Z,12.60
2023-04-21T20:29:56.095Z,14.00
2023-04-21T20:32:25.588Z,22.00
2023-04-21T20:34:53.923Z,24.63
2023-04-21T20:37:22.909Z,26.97
2023-04-21T20:39:50.949Z,33.20
2023-04-21T20:42:20.067Z,27.20
2023-04-21T20:44:48.169Z,24.30
2023-04-21T20:47:17.476Z,14.53
2023-04-21T20:49:47.427Z,15.87
2023-04-21T20:52:16.431Z,13.53
2023-04-21T20:54:44.456Z,6.77
2023-04-21T20:57:13.043Z,7.33
2023-04-21T20:59:41.382Z,6.73
2023-04-21T21:02:09.660Z,7.47
2023-04-21T21:04:37.970Z,11.93
2023-04-21T21:07:07.405Z,7.07
2023-04-21T21:09:35.656Z,12.27
2023-04-21T21:12:03.919Z,6.57
2023-04-21T21:14:32.344Z,5.80
2023-04-21T21:17:01.210Z,5.27
2023-04-21T21:19:29.407Z,6.50
2023-04-21T21:21:57.476Z,7.20
2023-04-21T21:24:28.792Z,6.40
2023-04-21T21:26:57.250Z,7.20
2023-04-21T21:29:25.371Z,6.03
2023-04-21T21:31:53.425Z,4.27
2023-04-21T21:34:21.481Z,6.40
2023-04-21T21:36:49.619Z,8.10
2023-04-21T21:39:17.695Z,6.60
2023-04-21T21:41:47.080Z,7.03
2023-04-21T21:44:15.108Z,6.70
2023-04-21T21:46:43.719Z,9.50
2023-04-21T21:49:11.993Z,5.50
2023-04-21T21:51:40.191Z,10.27
2023-04-21T21:54:08.890Z,5.03
2023-04-21T21:56:37.435Z,2.17
2023-04-21T21:59:06.963Z,3.57
2023-04-21T22:01:35.113Z,7.63
2023-04-21T22:04:03.622Z,5.60
2023-04-21T22:06:34.128Z,3.73
2023-04-21T22:09:02.188Z,3.50
2023-04-21T22:11:30.408Z,2.90
2023-04-21T22:14:07.729Z,5.13
2023-04-21T22:16:46.025Z,2.80
2023-04-21T22:19:14.717Z,2.13
2023-04-21T22:21:42.765Z,4.60
2023-04-21T22:24:10.851Z,1.57
2023-04-21T22:26:38.897Z,2.30
2023-04-21T22:29:07.051Z,2.23
2023-04-21T22:31:35.212Z,2.40
2023-04-21T22:34:04.712Z,3.43
2023-04-21T22:36:32.964Z,2.30
2023-04-21T22:39:01.260Z,1.93
2023-04-21T22:41:29.302Z,1.50
2023-04-21T22:43:57.354Z,2.53
2023-04-21T22:46:25.466Z,5.00
2023-04-21T22:48:54.154Z,1.97
2023-04-21T22:51:24.352Z,2.50
2023-04-21T22:53:52.396Z,8.90
2023-04-21T22:56:21.078Z,2.63
2023-04-21T22:58:49.475Z,4.90
2023-04-21T23:01:17.706Z,2.60
2023-04-21T23:03:45.930Z,2.50
2023-04-21T23:06:14.233Z,3.63
2023-04-21T23:08:43.590Z,4.43
2023-04-21T23:11:11.656Z,7.33
2023-04-21T23:13:39.902Z,9.70
2023-04-21T23:16:08.154Z,8.13
2023-04-21T23:18:36.500Z,3.30
2023-04-21T23:21:04.674Z,7.53
2023-04-21T23:23:32.744Z,2.37
2023-04-21T23:26:02.164Z,2.27
2023-04-21T23:28:30.380Z,2.37
2023-04-21T23:30:58.569Z,2.30
2023-04-21T23:33:27.074Z,2.30
2023-04-21T23:35:56.143Z,2.23
2023-04-21T23:38:24.212Z,2.93
2023-04-21T23:40:52.286Z,2.67
2023-04-21T23:43:21.674Z,1.80
2023-04-21T23:45:50.340Z,2.30
2023-04-21T23:48:18.489Z,2.13
2023-04-21T23:50:46.685Z,2.10
2023-04-21T23:53:14.875Z,2.87
2023-04-21T23:55:43.131Z,4.90
2023-04-21T23:58:11.268Z,2.53
